Terminal Aerodrome Forecast
Issued by NWS

Home | Current Version | Previous Version | Graphics & Text | Print | Product List | Glossary On
Versions: 1 2 3 4 5 6 7 8 9 10 11 12 13
000
FTUS43 KFGF 251726
TAFBJI
TAF
KBJI 251726Z 2518/2618 32014KT P6SM BKN045
     FM251900 33014KT P6SM VCSH BKN045
     FM260000 34010KT P6SM BKN045
     FM260100 33007KT P6SM SCT045
     FM261100 30006KT P6SM SKC=

USA.gov is the U.S. government's official web portal to all federal, state and local government web resources and services.